Ravenna, Nebraska
Current Conditions -  °F | °C
As of 11:15 PM on Monday 22 Dec 2014 (Local Time) from KEAR Reporting Station
Overcast Overcast  
Wind Chill: 24°   Ceiling: 5500
Heat Index: 34°   Visibility: 10mi
Dew Point: 27°   Wind: 15mph
Humidity: 75%   Direction: 290°WNW
Pressure: 29.58"   Gusts: 25mph
Location:  41.03°N, 98.91°W
Report Text: KEAR 230515Z 29013G22KT 10SM OVC055 01/M03 A2958 RMK AO1
Loading
Personal Weather Stations






























Interactive Weather Map New forecast layout! Learn more

10-Day Weather Forecast

Advertisements
Track Severe Weather on mobile